sensor_id;sensor_type;location;lat;lon;timestamp;P1;durP1;ratioP1;P2;durP2;ratioP2
44750;SDS011;30477;48.224;11.470;2023-04-15T00:01:46;8.50;;;5.27;;
44750;SDS011;30477;48.224;11.470;2023-04-15T00:04:12;10.10;;;5.25;;
44750;SDS011;30477;48.224;11.470;2023-04-15T00:06:37;8.67;;;5.00;;
44750;SDS011;30477;48.224;11.470;2023-04-15T00:09:04;9.30;;;4.93;;
44750;SDS011;30477;48.224;11.470;2023-04-15T00:11:29;9.88;;;5.05;;
44750;SDS011;30477;48.224;11.470;2023-04-15T00:13:55;10.67;;;5.10;;
44750;SDS011;30477;48.224;11.470;2023-04-15T00:16:20;8.23;;;5.07;;
44750;SDS011;30477;48.224;11.470;2023-04-15T00:18:46;8.87;;;5.20;;
44750;SDS011;30477;48.224;11.470;2023-04-15T00:21:11;9.50;;;5.10;;
44750;SDS011;30477;48.224;11.470;2023-04-15T00:23:36;11.43;;;4.83;;
44750;SDS011;30477;48.224;11.470;2023-04-15T00:26:02;9.57;;;5.13;;
44750;SDS011;30477;48.224;11.470;2023-04-15T00:28:27;8.43;;;4.90;;
44750;SDS011;30477;48.224;11.470;2023-04-15T00:30:53;7.80;;;4.85;;
44750;SDS011;30477;48.224;11.470;2023-04-15T00:33:18;10.67;;;5.17;;
44750;SDS011;30477;48.224;11.470;2023-04-15T00:35:43;8.53;;;5.07;;
44750;SDS011;30477;48.224;11.470;2023-04-15T00:38:09;10.90;;;5.23;;
44750;SDS011;30477;48.224;11.470;2023-04-15T00:40:34;7.23;;;4.83;;
44750;SDS011;30477;48.224;11.470;2023-04-15T00:43:00;10.90;;;5.40;;
44750;SDS011;30477;48.224;11.470;2023-04-15T00:45:26;10.65;;;5.38;;
44750;SDS011;30477;48.224;11.470;2023-04-15T00:47:54;9.30;;;5.70;;
44750;SDS011;30477;48.224;11.470;2023-04-15T00:50:20;11.32;;;5.65;;
44750;SDS011;30477;48.224;11.470;2023-04-15T00:52:46;9.57;;;5.60;;
44750;SDS011;30477;48.224;11.470;2023-04-15T00:55:11;8.40;;;5.67;;
44750;SDS011;30477;48.224;11.470;2023-04-15T00:57:38;14.25;;;6.25;;
44750;SDS011;30477;48.224;11.470;2023-04-15T01:00:04;9.02;;;5.40;;
44750;SDS011;30477;48.224;11.470;2023-04-15T01:02:31;9.68;;;5.70;;
44750;SDS011;30477;48.224;11.470;2023-04-15T01:04:58;10.50;;;5.80;;
44750;SDS011;30477;48.224;11.470;2023-04-15T01:07:23;10.87;;;5.77;;
44750;SDS011;30477;48.224;11.470;2023-04-15T01:09:48;9.13;;;5.73;;
44750;SDS011;30477;48.224;11.470;2023-04-15T01:12:14;10.03;;;6.27;;
44750;SDS011;30477;48.224;11.470;2023-04-15T01:14:41;9.50;;;6.43;;
44750;SDS011;30477;48.224;11.470;2023-04-15T01:17:06;8.90;;;6.40;;
44750;SDS011;30477;48.224;11.470;2023-04-15T01:19:32;10.55;;;6.50;;
44750;SDS011;30477;48.224;11.470;2023-04-15T01:21:58;7.82;;;6.07;;
44750;SDS011;30477;48.224;11.470;2023-04-15T01:24:23;8.07;;;5.63;;
44750;SDS011;30477;48.224;11.470;2023-04-15T01:26:51;12.52;;;6.55;;
44750;SDS011;30477;48.224;11.470;2023-04-15T01:29:16;10.10;;;6.70;;
44750;SDS011;30477;48.224;11.470;2023-04-15T01:31:51;11.20;;;6.90;;
44750;SDS011;30477;48.224;11.470;2023-04-15T01:34:19;10.80;;;6.25;;
44750;SDS011;30477;48.224;11.470;2023-04-15T01:36:45;10.55;;;6.38;;
44750;SDS011;30477;48.224;11.470;2023-04-15T01:39:10;10.82;;;6.97;;
44750;SDS011;30477;48.224;11.470;2023-04-15T01:41:36;10.93;;;7.20;;
44750;SDS011;30477;48.224;11.470;2023-04-15T01:44:02;10.17;;;6.83;;
44750;SDS011;30477;48.224;11.470;2023-04-15T01:46:27;11.60;;;6.70;;
44750;SDS011;30477;48.224;11.470;2023-04-15T01:48:52;11.40;;;6.90;;
44750;SDS011;30477;48.224;11.470;2023-04-15T01:51:18;8.27;;;7.10;;
44750;SDS011;30477;48.224;11.470;2023-04-15T01:53:44;8.57;;;6.50;;
44750;SDS011;30477;48.224;11.470;2023-04-15T01:56:09;11.30;;;7.32;;
44750;SDS011;30477;48.224;11.470;2023-04-15T01:58:35;8.98;;;7.07;;
44750;SDS011;30477;48.224;11.470;2023-04-15T02:01:01;11.47;;;6.53;;
44750;SDS011;30477;48.224;11.470;2023-04-15T02:03:27;9.55;;;6.68;;
44750;SDS011;30477;48.224;11.470;2023-04-15T02:05:53;11.05;;;6.25;;
44750;SDS011;30477;48.224;11.470;2023-04-15T02:08:19;8.70;;;6.80;;
44750;SDS011;30477;48.224;11.470;2023-04-15T02:10:44;9.07;;;6.80;;
44750;SDS011;30477;48.224;11.470;2023-04-15T02:13:09;11.80;;;6.80;;
44750;SDS011;30477;48.224;11.470;2023-04-15T02:15:35;9.27;;;6.90;;
44750;SDS011;30477;48.224;11.470;2023-04-15T02:18:00;9.23;;;6.93;;
44750;SDS011;30477;48.224;11.470;2023-04-15T02:20:26;10.23;;;6.38;;
44750;SDS011;30477;48.224;11.470;2023-04-15T02:22:52;10.73;;;6.30;;
44750;SDS011;30477;48.224;11.470;2023-04-15T02:25:17;11.43;;;7.17;;
44750;SDS011;30477;48.224;11.470;2023-04-15T02:27:43;9.83;;;6.57;;
44750;SDS011;30477;48.224;11.470;2023-04-15T02:30:08;7.93;;;6.23;;
44750;SDS011;30477;48.224;11.470;2023-04-15T02:32:34;11.45;;;6.20;;
44750;SDS011;30477;48.224;11.470;2023-04-15T02:35:02;11.10;;;6.10;;
44750;SDS011;30477;48.224;11.470;2023-04-15T02:37:29;7.95;;;6.00;;
44750;SDS011;30477;48.224;11.470;2023-04-15T02:39:55;8.93;;;6.53;;
44750;SDS011;30477;48.224;11.470;2023-04-15T02:42:21;13.10;;;6.30;;
44750;SDS011;30477;48.224;11.470;2023-04-15T02:44:46;12.23;;;6.77;;
44750;SDS011;30477;48.224;11.470;2023-04-15T02:47:11;11.57;;;6.33;;
44750;SDS011;30477;48.224;11.470;2023-04-15T02:49:38;11.23;;;5.93;;
44750;SDS011;30477;48.224;11.470;2023-04-15T02:52:04;10.55;;;6.68;;
44750;SDS011;30477;48.224;11.470;2023-04-15T02:54:30;10.50;;;6.22;;
44750;SDS011;30477;48.224;11.470;2023-04-15T02:56:57;9.40;;;6.45;;
44750;SDS011;30477;48.224;11.470;2023-04-15T02:59:23;8.10;;;5.83;;
44750;SDS011;30477;48.224;11.470;2023-04-15T03:01:48;8.73;;;6.50;;
44750;SDS011;30477;48.224;11.470;2023-04-15T03:04:14;10.50;;;5.57;;
44750;SDS011;30477;48.224;11.470;2023-04-15T03:06:39;10.33;;;6.40;;
44750;SDS011;30477;48.224;11.470;2023-04-15T03:09:04;11.03;;;6.10;;
44750;SDS011;30477;48.224;11.470;2023-04-15T03:11:30;11.07;;;5.60;;
44750;SDS011;30477;48.224;11.470;2023-04-15T03:16:22;9.02;;;5.93;;
44750;SDS011;30477;48.224;11.470;2023-04-15T03:18:48;11.60;;;6.40;;
44750;SDS011;30477;48.224;11.470;2023-04-15T03:21:13;8.33;;;5.70;;
44750;SDS011;30477;48.224;11.470;2023-04-15T03:23:38;9.57;;;5.90;;
44750;SDS011;30477;48.224;11.470;2023-04-15T03:26:04;10.80;;;5.70;;
44750;SDS011;30477;48.224;11.470;2023-04-15T03:28:29;12.37;;;6.53;;
44750;SDS011;30477;48.224;11.470;2023-04-15T03:30:56;11.15;;;6.70;;
44750;SDS011;30477;48.224;11.470;2023-04-15T03:33:22;12.38;;;6.40;;
44750;SDS011;30477;48.224;11.470;2023-04-15T03:35:47;9.67;;;6.23;;
44750;SDS011;30477;48.224;11.470;2023-04-15T03:38:12;12.60;;;6.43;;
44750;SDS011;30477;48.224;11.470;2023-04-15T03:40:39;10.83;;;6.30;;
44750;SDS011;30477;48.224;11.470;2023-04-15T03:43:05;11.15;;;6.43;;
44750;SDS011;30477;48.224;11.470;2023-04-15T03:45:31;9.13;;;6.33;;
44750;SDS011;30477;48.224;11.470;2023-04-15T03:47:56;7.90;;;6.00;;
44750;SDS011;30477;48.224;11.470;2023-04-15T03:50:21;9.30;;;6.17;;
44750;SDS011;30477;48.224;11.470;2023-04-15T03:52:47;8.43;;;6.30;;
44750;SDS011;30477;48.224;11.470;2023-04-15T03:55:12;10.50;;;6.37;;
44750;SDS011;30477;48.224;11.470;2023-04-15T03:57:38;10.57;;;6.22;;
44750;SDS011;30477;48.224;11.470;2023-04-15T04:00:04;10.37;;;6.50;;
44750;SDS011;30477;48.224;11.470;2023-04-15T04:02:31;11.73;;;5.90;;
44750;SDS011;30477;48.224;11.470;2023-04-15T04:04:56;10.47;;;5.83;;
44750;SDS011;30477;48.224;11.470;2023-04-15T04:07:22;8.23;;;5.83;;
44750;SDS011;30477;48.224;11.470;2023-04-15T04:09:48;8.32;;;5.97;;
44750;SDS011;30477;48.224;11.470;2023-04-15T04:12:13;9.83;;;5.80;;
44750;SDS011;30477;48.224;11.470;2023-04-15T04:14:38;7.97;;;5.90;;
44750;SDS011;30477;48.224;11.470;2023-04-15T04:17:04;9.50;;;5.90;;
44750;SDS011;30477;48.224;11.470;2023-04-15T04:19:29;9.10;;;6.00;;
44750;SDS011;30477;48.224;11.470;2023-04-15T04:21:55;9.43;;;5.35;;
44750;SDS011;30477;48.224;11.470;2023-04-15T04:24:20;8.33;;;5.67;;
44750;SDS011;30477;48.224;11.470;2023-04-15T04:26:45;9.40;;;5.90;;
44750;SDS011;30477;48.224;11.470;2023-04-15T04:29:11;8.60;;;5.63;;
44750;SDS011;30477;48.224;11.470;2023-04-15T04:31:36;12.70;;;5.60;;
44750;SDS011;30477;48.224;11.470;2023-04-15T04:34:02;11.67;;;5.60;;
44750;SDS011;30477;48.224;11.470;2023-04-15T04:36:27;11.80;;;6.33;;
44750;SDS011;30477;48.224;11.470;2023-04-15T04:38:52;6.90;;;5.10;;
44750;SDS011;30477;48.224;11.470;2023-04-15T04:41:18;10.37;;;5.80;;
44750;SDS011;30477;48.224;11.470;2023-04-15T04:43:43;8.73;;;5.07;;
44750;SDS011;30477;48.224;11.470;2023-04-15T04:46:08;8.67;;;5.47;;
44750;SDS011;30477;48.224;11.470;2023-04-15T04:48:34;8.45;;;4.95;;
44750;SDS011;30477;48.224;11.470;2023-04-15T04:50:59;7.43;;;5.40;;
44750;SDS011;30477;48.224;11.470;2023-04-15T04:53:25;9.57;;;5.30;;
44750;SDS011;30477;48.224;11.470;2023-04-15T04:55:50;9.27;;;4.63;;
44750;SDS011;30477;48.224;11.470;2023-04-15T04:58:16;9.95;;;4.68;;
44750;SDS011;30477;48.224;11.470;2023-04-15T05:00:41;11.67;;;5.20;;
44750;SDS011;30477;48.224;11.470;2023-04-15T05:03:07;10.57;;;4.90;;
44750;SDS011;30477;48.224;11.470;2023-04-15T05:05:32;7.83;;;4.73;;
44750;SDS011;30477;48.224;11.470;2023-04-15T05:07:59;9.10;;;5.00;;
44750;SDS011;30477;48.224;11.470;2023-04-15T05:10:25;7.87;;;4.60;;
44750;SDS011;30477;48.224;11.470;2023-04-15T05:12:50;8.17;;;4.20;;
44750;SDS011;30477;48.224;11.470;2023-04-15T05:15:16;10.50;;;5.32;;
44750;SDS011;30477;48.224;11.470;2023-04-15T05:17:41;8.00;;;4.63;;
44750;SDS011;30477;48.224;11.470;2023-04-15T05:20:07;6.87;;;4.47;;
44750;SDS011;30477;48.224;11.470;2023-04-15T05:24:58;11.73;;;4.20;;
44750;SDS011;30477;48.224;11.470;2023-04-15T05:27:24;9.87;;;4.30;;
44750;SDS011;30477;48.224;11.470;2023-04-15T05:29:49;9.23;;;4.50;;
44750;SDS011;30477;48.224;11.470;2023-04-15T05:32:14;7.67;;;3.93;;
44750;SDS011;30477;48.224;11.470;2023-04-15T05:34:40;6.47;;;3.85;;
44750;SDS011;30477;48.224;11.470;2023-04-15T05:37:06;8.50;;;4.17;;
44750;SDS011;30477;48.224;11.470;2023-04-15T05:39:31;8.18;;;4.07;;
44750;SDS011;30477;48.224;11.470;2023-04-15T05:41:57;8.27;;;3.70;;
44750;SDS011;30477;48.224;11.470;2023-04-15T05:44:23;7.60;;;3.78;;
44750;SDS011;30477;48.224;11.470;2023-04-15T05:46:49;5.53;;;3.08;;
44750;SDS011;30477;48.224;11.470;2023-04-15T05:49:14;6.33;;;3.50;;
44750;SDS011;30477;48.224;11.470;2023-04-15T05:51:40;8.00;;;3.47;;
44750;SDS011;30477;48.224;11.470;2023-04-15T05:54:05;5.33;;;2.93;;
44750;SDS011;30477;48.224;11.470;2023-04-15T05:56:30;10.00;;;3.47;;
44750;SDS011;30477;48.224;11.470;2023-04-15T05:58:56;7.73;;;4.00;;
44750;SDS011;30477;48.224;11.470;2023-04-15T06:01:21;6.73;;;3.50;;
44750;SDS011;30477;48.224;11.470;2023-04-15T06:03:47;6.90;;;3.03;;
44750;SDS011;30477;48.224;11.470;2023-04-15T06:06:12;5.35;;;2.50;;
44750;SDS011;30477;48.224;11.470;2023-04-15T06:08:39;6.70;;;3.03;;
44750;SDS011;30477;48.224;11.470;2023-04-15T06:11:04;8.13;;;3.07;;
44750;SDS011;30477;48.224;11.470;2023-04-15T06:13:30;5.35;;;2.60;;
44750;SDS011;30477;48.224;11.470;2023-04-15T06:15:55;6.03;;;2.90;;
44750;SDS011;30477;48.224;11.470;2023-04-15T06:18:21;4.53;;;2.77;;
44750;SDS011;30477;48.224;11.470;2023-04-15T06:20:46;5.63;;;3.00;;
44750;SDS011;30477;48.224;11.470;2023-04-15T06:23:11;9.03;;;2.90;;
44750;SDS011;30477;48.224;11.470;2023-04-15T06:25:37;6.93;;;2.93;;
44750;SDS011;30477;48.224;11.470;2023-04-15T06:28:02;4.83;;;2.67;;
44750;SDS011;30477;48.224;11.470;2023-04-15T06:30:28;5.70;;;2.60;;
44750;SDS011;30477;48.224;11.470;2023-04-15T06:32:53;6.07;;;2.63;;
44750;SDS011;30477;48.224;11.470;2023-04-15T06:35:19;4.90;;;2.85;;
44750;SDS011;30477;48.224;11.470;2023-04-15T06:37:44;5.93;;;3.00;;
44750;SDS011;30477;48.224;11.470;2023-04-15T06:40:10;7.80;;;2.73;;
44750;SDS011;30477;48.224;11.470;2023-04-15T06:42:35;10.13;;;3.03;;
44750;SDS011;30477;48.224;11.470;2023-04-15T06:45:02;3.60;;;2.50;;
44750;SDS011;30477;48.224;11.470;2023-04-15T06:47:28;6.78;;;2.80;;
44750;SDS011;30477;48.224;11.470;2023-04-15T06:49:53;4.27;;;2.50;;
44750;SDS011;30477;48.224;11.470;2023-04-15T06:52:18;4.77;;;2.70;;
44750;SDS011;30477;48.224;11.470;2023-04-15T06:54:44;3.13;;;2.37;;
44750;SDS011;30477;48.224;11.470;2023-04-15T06:57:09;8.60;;;2.63;;
44750;SDS011;30477;48.224;11.470;2023-04-15T06:59:35;5.67;;;2.53;;
44750;SDS011;30477;48.224;11.470;2023-04-15T07:02:00;6.03;;;2.53;;
44750;SDS011;30477;48.224;11.470;2023-04-15T07:04:26;4.23;;;2.27;;
44750;SDS011;30477;48.224;11.470;2023-04-15T07:06:52;3.67;;;2.38;;
44750;SDS011;30477;48.224;11.470;2023-04-15T07:11:43;4.90;;;2.15;;
44750;SDS011;30477;48.224;11.470;2023-04-15T07:14:09;8.80;;;2.30;;
44750;SDS011;30477;48.224;11.470;2023-04-15T07:16:34;4.87;;;2.30;;
44750;SDS011;30477;48.224;11.470;2023-04-15T07:19:00;4.80;;;2.33;;
44750;SDS011;30477;48.224;11.470;2023-04-15T07:21:25;4.83;;;2.20;;
44750;SDS011;30477;48.224;11.470;2023-04-15T07:23:51;5.82;;;2.30;;
44750;SDS011;30477;48.224;11.470;2023-04-15T07:26:17;4.03;;;2.20;;
44750;SDS011;30477;48.224;11.470;2023-04-15T07:28:42;4.93;;;2.10;;
44750;SDS011;30477;48.224;11.470;2023-04-15T07:31:07;5.77;;;2.20;;
44750;SDS011;30477;48.224;11.470;2023-04-15T07:33:33;5.60;;;2.50;;
44750;SDS011;30477;48.224;11.470;2023-04-15T07:35:58;7.93;;;2.93;;
44750;SDS011;30477;48.224;11.470;2023-04-15T07:38:23;5.60;;;2.47;;
44750;SDS011;30477;48.224;11.470;2023-04-15T07:40:49;5.10;;;2.30;;
44750;SDS011;30477;48.224;11.470;2023-04-15T07:43:15;4.10;;;2.23;;
44750;SDS011;30477;48.224;11.470;2023-04-15T07:45:40;4.77;;;2.30;;
44750;SDS011;30477;48.224;11.470;2023-04-15T07:48:05;4.37;;;2.70;;
44750;SDS011;30477;48.224;11.470;2023-04-15T07:50:32;6.30;;;2.65;;
44750;SDS011;30477;48.224;11.470;2023-04-15T07:52:57;4.87;;;2.53;;
44750;SDS011;30477;48.224;11.470;2023-04-15T07:55:22;5.97;;;2.50;;
44750;SDS011;30477;48.224;11.470;2023-04-15T07:57:48;5.53;;;3.23;;
44750;SDS011;30477;48.224;11.470;2023-04-15T08:00:14;5.43;;;2.50;;
44750;SDS011;30477;48.224;11.470;2023-04-15T08:02:40;5.95;;;2.33;;
44750;SDS011;30477;48.224;11.470;2023-04-15T08:05:07;4.40;;;2.20;;
44750;SDS011;30477;48.224;11.470;2023-04-15T08:07:33;3.40;;;2.13;;
44750;SDS011;30477;48.224;11.470;2023-04-15T08:09:59;9.85;;;2.60;;
44750;SDS011;30477;48.224;11.470;2023-04-15T08:12:24;4.40;;;2.33;;
44750;SDS011;30477;48.224;11.470;2023-04-15T08:14:50;4.93;;;2.40;;
44750;SDS011;30477;48.224;11.470;2023-04-15T08:17:16;4.35;;;2.30;;
44750;SDS011;30477;48.224;11.470;2023-04-15T08:19:41;4.40;;;2.03;;
44750;SDS011;30477;48.224;11.470;2023-04-15T08:22:07;5.90;;;2.40;;
44750;SDS011;30477;48.224;11.470;2023-04-15T08:24:32;5.43;;;2.50;;
44750;SDS011;30477;48.224;11.470;2023-04-15T08:26:58;5.70;;;2.38;;
44750;SDS011;30477;48.224;11.470;2023-04-15T08:29:25;3.85;;;2.30;;
44750;SDS011;30477;48.224;11.470;2023-04-15T08:31:51;5.93;;;2.53;;
44750;SDS011;30477;48.224;11.470;2023-04-15T08:34:17;6.82;;;2.38;;
44750;SDS011;30477;48.224;11.470;2023-04-15T08:36:43;4.83;;;2.50;;
44750;SDS011;30477;48.224;11.470;2023-04-15T08:39:08;5.67;;;2.67;;
44750;SDS011;30477;48.224;11.470;2023-04-15T08:41:39;4.40;;;2.70;;
44750;SDS011;30477;48.224;11.470;2023-04-15T08:44:11;6.05;;;2.72;;
44750;SDS011;30477;48.224;11.470;2023-04-15T08:46:38;5.50;;;2.90;;
44750;SDS011;30477;48.224;11.470;2023-04-15T08:49:06;4.40;;;2.28;;
44750;SDS011;30477;48.224;11.470;2023-04-15T08:51:34;5.85;;;3.00;;
44750;SDS011;30477;48.224;11.470;2023-04-15T08:54:00;4.60;;;2.67;;
44750;SDS011;30477;48.224;11.470;2023-04-15T08:56:26;4.97;;;3.17;;
44750;SDS011;30477;48.224;11.470;2023-04-15T08:58:52;6.50;;;2.47;;
44750;SDS011;30477;48.224;11.470;2023-04-15T09:01:17;5.20;;;2.57;;
44750;SDS011;30477;48.224;11.470;2023-04-15T09:03:43;6.03;;;3.10;;
44750;SDS011;30477;48.224;11.470;2023-04-15T09:08:35;4.13;;;2.58;;
44750;SDS011;30477;48.224;11.470;2023-04-15T09:11:03;4.53;;;3.23;;
44750;SDS011;30477;48.224;11.470;2023-04-15T09:13:29;5.30;;;3.08;;
44750;SDS011;30477;48.224;11.470;2023-04-15T09:15:55;7.32;;;3.17;;
44750;SDS011;30477;48.224;11.470;2023-04-15T09:18:28;7.50;;;3.20;;
44750;SDS011;30477;48.224;11.470;2023-04-15T09:20:55;5.28;;;3.35;;
44750;SDS011;30477;48.224;11.470;2023-04-15T09:23:29;5.35;;;2.90;;
44750;SDS011;30477;48.224;11.470;2023-04-15T09:25:55;4.82;;;3.15;;
44750;SDS011;30477;48.224;11.470;2023-04-15T09:28:24;5.13;;;3.33;;
44750;SDS011;30477;48.224;11.470;2023-04-15T09:30:56;9.95;;;3.40;;
44750;SDS011;30477;48.224;11.470;2023-04-15T09:33:22;5.55;;;3.08;;
44750;SDS011;30477;48.224;11.470;2023-04-15T09:38:25;6.63;;;3.53;;
44750;SDS011;30477;48.224;11.470;2023-04-15T09:40:50;6.17;;;3.00;;
44750;SDS011;30477;48.224;11.470;2023-04-15T09:43:16;5.10;;;3.27;;
44750;SDS011;30477;48.224;11.470;2023-04-15T09:45:48;5.37;;;3.53;;
44750;SDS011;30477;48.224;11.470;2023-04-15T09:48:21;4.67;;;2.80;;
44750;SDS011;30477;48.224;11.470;2023-04-15T09:50:49;5.22;;;3.50;;
44750;SDS011;30477;48.224;11.470;2023-04-15T09:53:18;5.88;;;3.90;;
44750;SDS011;30477;48.224;11.470;2023-04-15T09:55:48;5.32;;;3.50;;
44750;SDS011;30477;48.224;11.470;2023-04-15T09:58:28;10.23;;;3.90;;
44750;SDS011;30477;48.224;11.470;2023-04-15T10:08:18;5.95;;;3.55;;
44750;SDS011;30477;48.224;11.470;2023-04-15T10:10:45;6.90;;;3.90;;
44750;SDS011;30477;48.224;11.470;2023-04-15T10:13:16;5.93;;;3.83;;
44750;SDS011;30477;48.224;11.470;2023-04-15T10:15:45;8.60;;;4.32;;
44750;SDS011;30477;48.224;11.470;2023-04-15T10:18:19;7.88;;;4.22;;
44750;SDS011;30477;48.224;11.470;2023-04-15T10:20:47;8.90;;;4.13;;
44750;SDS011;30477;48.224;11.470;2023-04-15T10:23:13;6.72;;;4.50;;
44750;SDS011;30477;48.224;11.470;2023-04-15T10:28:05;8.13;;;4.40;;
44750;SDS011;30477;48.224;11.470;2023-04-15T10:30:33;7.50;;;4.43;;
44750;SDS011;30477;48.224;11.470;2023-04-15T10:32:59;6.93;;;4.50;;
44750;SDS011;30477;48.224;11.470;2023-04-15T10:35:27;6.82;;;4.70;;
44750;SDS011;30477;48.224;11.470;2023-04-15T10:37:54;6.30;;;5.03;;
44750;SDS011;30477;48.224;11.470;2023-04-15T10:40:29;8.23;;;5.67;;
44750;SDS011;30477;48.224;11.470;2023-04-15T10:43:02;6.93;;;5.35;;
44750;SDS011;30477;48.224;11.470;2023-04-15T10:45:31;10.40;;;4.70;;
44750;SDS011;30477;48.224;11.470;2023-04-15T10:47:59;9.25;;;5.90;;
44750;SDS011;30477;48.224;11.470;2023-04-15T10:50:26;8.70;;;6.20;;
44750;SDS011;30477;48.224;11.470;2023-04-15T10:52:54;9.10;;;5.72;;
44750;SDS011;30477;48.224;11.470;2023-04-15T10:55:21;7.97;;;5.78;;
44750;SDS011;30477;48.224;11.470;2023-04-15T10:57:59;8.02;;;5.82;;
44750;SDS011;30477;48.224;11.470;2023-04-15T11:00:29;8.95;;;6.10;;
44750;SDS011;30477;48.224;11.470;2023-04-15T11:08:17;8.63;;;5.85;;
44750;SDS011;30477;48.224;11.470;2023-04-15T11:18:19;11.25;;;6.75;;
44750;SDS011;30477;48.224;11.470;2023-04-15T11:20:52;8.50;;;6.57;;
44750;SDS011;30477;48.224;11.470;2023-04-15T11:23:28;11.98;;;6.68;;
44750;SDS011;30477;48.224;11.470;2023-04-15T11:26:03;11.35;;;6.68;;
44750;SDS011;30477;48.224;11.470;2023-04-15T11:28:33;9.00;;;6.68;;
44750;SDS011;30477;48.224;11.470;2023-04-15T11:31:04;11.63;;;6.65;;
44750;SDS011;30477;48.224;11.470;2023-04-15T11:33:33;9.82;;;6.15;;
44750;SDS011;30477;48.224;11.470;2023-04-15T11:35:59;8.77;;;6.17;;
44750;SDS011;30477;48.224;11.470;2023-04-15T11:38:25;8.45;;;6.00;;
44750;SDS011;30477;48.224;11.470;2023-04-15T11:40:51;11.07;;;6.22;;
44750;SDS011;30477;48.224;11.470;2023-04-15T11:43:20;11.90;;;6.20;;
44750;SDS011;30477;48.224;11.470;2023-04-15T11:45:54;7.22;;;5.95;;
44750;SDS011;30477;48.224;11.470;2023-04-15T11:50:54;9.32;;;6.00;;
44750;SDS011;30477;48.224;11.470;2023-04-15T11:53:24;8.52;;;5.80;;
44750;SDS011;30477;48.224;11.470;2023-04-15T11:56:01;10.68;;;5.93;;
44750;SDS011;30477;48.224;11.470;2023-04-15T11:58:28;8.10;;;5.40;;
44750;SDS011;30477;48.224;11.470;2023-04-15T12:00:57;8.25;;;5.72;;
44750;SDS011;30477;48.224;11.470;2023-04-15T12:03:30;8.50;;;5.10;;
44750;SDS011;30477;48.224;11.470;2023-04-15T12:06:37;7.68;;;4.80;;
44750;SDS011;30477;48.224;11.470;2023-04-15T12:11:50;7.60;;;4.25;;
44750;SDS011;30477;48.224;11.470;2023-04-15T12:14:25;5.95;;;4.38;;
44750;SDS011;30477;48.224;11.470;2023-04-15T12:16:53;7.85;;;4.30;;
44750;SDS011;30477;48.224;11.470;2023-04-15T12:19:28;8.13;;;3.67;;
44750;SDS011;30477;48.224;11.470;2023-04-15T12:21:59;6.15;;;3.67;;
44750;SDS011;30477;48.224;11.470;2023-04-15T12:24:28;7.22;;;2.92;;
44750;SDS011;30477;48.224;11.470;2023-04-15T12:26:56;4.40;;;2.80;;
44750;SDS011;30477;48.224;11.470;2023-04-15T12:29:27;6.22;;;2.58;;
44750;SDS011;30477;48.224;11.470;2023-04-15T12:32:08;4.95;;;3.00;;
44750;SDS011;30477;48.224;11.470;2023-04-15T12:34:41;8.23;;;3.88;;
44750;SDS011;30477;48.224;11.470;2023-04-15T12:37:09;5.32;;;2.92;;
44750;SDS011;30477;48.224;11.470;2023-04-15T12:39:38;4.43;;;3.13;;
44750;SDS011;30477;48.224;11.470;2023-04-15T12:42:05;5.78;;;3.63;;
44750;SDS011;30477;48.224;11.470;2023-04-15T12:44:31;6.43;;;3.47;;
44750;SDS011;30477;48.224;11.470;2023-04-15T12:46:57;5.78;;;3.58;;
44750;SDS011;30477;48.224;11.470;2023-04-15T12:49:23;7.18;;;3.92;;
44750;SDS011;30477;48.224;11.470;2023-04-15T12:51:52;4.10;;;3.50;;
44750;SDS011;30477;48.224;11.470;2023-04-15T12:54:19;5.45;;;4.30;;
44750;SDS011;30477;48.224;11.470;2023-04-15T12:56:45;7.15;;;4.25;;
44750;SDS011;30477;48.224;11.470;2023-04-15T12:59:12;7.78;;;4.57;;
44750;SDS011;30477;48.224;11.470;2023-04-15T13:01:38;7.07;;;4.50;;
44750;SDS011;30477;48.224;11.470;2023-04-15T13:04:04;8.63;;;5.35;;
44750;SDS011;30477;48.224;11.470;2023-04-15T13:06:30;8.98;;;5.30;;
44750;SDS011;30477;48.224;11.470;2023-04-15T13:08:57;8.57;;;5.22;;
44750;SDS011;30477;48.224;11.470;2023-04-15T13:11:23;8.13;;;5.00;;
44750;SDS011;30477;48.224;11.470;2023-04-15T13:13:49;6.55;;;5.10;;
44750;SDS011;30477;48.224;11.470;2023-04-15T13:16:16;8.57;;;5.90;;
44750;SDS011;30477;48.224;11.470;2023-04-15T13:18:41;9.97;;;5.07;;
44750;SDS011;30477;48.224;11.470;2023-04-15T13:21:06;5.60;;;4.97;;
44750;SDS011;30477;48.224;11.470;2023-04-15T13:23:32;8.93;;;5.37;;
44750;SDS011;30477;48.224;11.470;2023-04-15T13:25:58;9.57;;;4.90;;
44750;SDS011;30477;48.224;11.470;2023-04-15T13:28:23;6.93;;;4.73;;
44750;SDS011;30477;48.224;11.470;2023-04-15T13:30:48;9.90;;;5.17;;
44750;SDS011;30477;48.224;11.470;2023-04-15T13:33:15;10.70;;;6.10;;
44750;SDS011;30477;48.224;11.470;2023-04-15T13:35:41;9.02;;;5.45;;
44750;SDS011;30477;48.224;11.470;2023-04-15T13:38:07;9.20;;;5.40;;
44750;SDS011;30477;48.224;11.470;2023-04-15T13:40:32;9.50;;;5.33;;
44750;SDS011;30477;48.224;11.470;2023-04-15T13:42:57;9.17;;;5.83;;
44750;SDS011;30477;48.224;11.470;2023-04-15T13:45:23;7.35;;;5.00;;
44750;SDS011;30477;48.224;11.470;2023-04-15T13:47:49;8.77;;;5.50;;
44750;SDS011;30477;48.224;11.470;2023-04-15T13:50:14;8.60;;;4.90;;
44750;SDS011;30477;48.224;11.470;2023-04-15T13:52:40;5.27;;;4.40;;
44750;SDS011;30477;48.224;11.470;2023-04-15T13:55:05;8.30;;;4.90;;
44750;SDS011;30477;48.224;11.470;2023-04-15T13:57:31;9.88;;;4.50;;
44750;SDS011;30477;48.224;11.470;2023-04-15T13:59:56;6.63;;;4.40;;
44750;SDS011;30477;48.224;11.470;2023-04-15T14:02:22;6.60;;;4.07;;
44750;SDS011;30477;48.224;11.470;2023-04-15T14:04:47;7.70;;;4.63;;
44750;SDS011;30477;48.224;11.470;2023-04-15T14:07:13;7.07;;;4.17;;
44750;SDS011;30477;48.224;11.470;2023-04-15T14:09:38;5.93;;;4.00;;
44750;SDS011;30477;48.224;11.470;2023-04-15T14:12:03;6.70;;;3.93;;
44750;SDS011;30477;48.224;11.470;2023-04-15T14:14:29;5.55;;;4.07;;
44750;SDS011;30477;48.224;11.470;2023-04-15T14:16:54;5.03;;;4.00;;
44750;SDS011;30477;48.224;11.470;2023-04-15T14:19:21;6.50;;;3.70;;
44750;SDS011;30477;48.224;11.470;2023-04-15T14:21:46;4.17;;;3.63;;
44750;SDS011;30477;48.224;11.470;2023-04-15T14:24:11;6.33;;;3.80;;
44750;SDS011;30477;48.224;11.470;2023-04-15T14:26:37;7.90;;;3.73;;
44750;SDS011;30477;48.224;11.470;2023-04-15T14:29:02;5.93;;;3.90;;
44750;SDS011;30477;48.224;11.470;2023-04-15T14:31:27;7.23;;;5.17;;
44750;SDS011;30477;48.224;11.470;2023-04-15T14:33:53;5.73;;;4.00;;
44750;SDS011;30477;48.224;11.470;2023-04-15T14:36:18;7.13;;;4.47;;
44750;SDS011;30477;48.224;11.470;2023-04-15T14:38:43;8.73;;;4.47;;
44750;SDS011;30477;48.224;11.470;2023-04-15T14:41:09;5.30;;;4.80;;
44750;SDS011;30477;48.224;11.470;2023-04-15T14:43:34;7.47;;;4.90;;
44750;SDS011;30477;48.224;11.470;2023-04-15T14:46:00;7.75;;;4.85;;
44750;SDS011;30477;48.224;11.470;2023-04-15T14:48:26;5.73;;;4.70;;
44750;SDS011;30477;48.224;11.470;2023-04-15T14:50:51;10.53;;;5.20;;
44750;SDS011;30477;48.224;11.470;2023-04-15T14:53:17;5.77;;;4.60;;
44750;SDS011;30477;48.224;11.470;2023-04-15T14:55:42;6.83;;;4.93;;
44750;SDS011;30477;48.224;11.470;2023-04-15T14:58:08;6.07;;;5.07;;
44750;SDS011;30477;48.224;11.470;2023-04-15T15:00:33;6.70;;;4.70;;
44750;SDS011;30477;48.224;11.470;2023-04-15T15:05:25;5.20;;;4.35;;
44750;SDS011;30477;48.224;11.470;2023-04-15T15:07:51;6.20;;;3.90;;
44750;SDS011;30477;48.224;11.470;2023-04-15T15:10:16;6.87;;;4.87;;